Clear Lake, Minnesota
Current Conditions -  °F | °C
As of 1:13 AM on Thursday 23 Oct 2014 (Local Time) from KSTC Reporting Station
Moderate Rain Moderate Rain  
Wind Chill: 53°   Ceiling: 1800
Heat Index: 53°   Visibility: 4mi
Dew Point: 48°   Wind: 6mph
Humidity: 83%   Direction: 190°S
Pressure: 29.97"   Gusts: NA
Location:  45.44°N, 94°W
Report Text: KSTC 230613Z AUTO 19005KT 4SM RA OVC018 12/09 A2997 RMK AO2 P0004 T01170089
Loading
Personal Weather Stations






























Interactive Weather Map
Tropical Storm Tracking
New forecast layout! Learn more

10-Day Weather Forecast

Advertisements
Track Severe Weather on mobile